Time;durP1;ratioP1;P1;durP2;ratioP2;P2;SDS_P1;SDS_P2;PMS_P1;PMS_P2;Temp;Humidity;BMP_temperature;BMP_pressure;BME280_temperature;BME280_humidity;BME280_pressure;Samples;Min_cycle;Max_cycle;Signal;HPM_P1;HPM_P2
2023/05/16 00:01:38;;;;;;;;;;;;;;;17.93;67.17;99423.94;4437301;32;33459;-77
2023/05/16 00:04:06;;;;;;;;;;;;;;;19.91;60.47;99421.44;4433576;32;34002;-77
2023/05/16 00:06:34;;;;;;;;;;;;;;;19.39;61.71;99414.31;4435401;32;34616;-77
2023/05/16 00:09:02;;;;;;;;;;;;;;;20.61;57.07;99410.06;4423666;32;35414;-77
2023/05/16 00:11:29;;;;;;;;;;;;;;;20.56;56.95;99412.63;4423275;32;34746;-77
2023/05/16 00:13:57;;;;;;;;;;;;;;;18.97;62.22;99413.28;4426607;32;34368;-77
2023/05/16 00:16:24;;;;;;;;;;;;;;;18.19;65.79;99409.25;4420610;32;33849;-77
2023/05/16 00:18:52;;;;;;;;;;;;;;;18.20;66.01;99400.56;4436558;32;34893;-76
2023/05/16 00:21:19;;;;;;;;;;;;;;;18.24;65.79;99383.97;4417856;32;33116;-77
2023/05/16 00:23:50;;;;;;;;;;;;;;;19.25;62.83;99382.75;4437014;32;34363;-77
2023/05/16 00:26:18;;;;;;;;;;;;;;;18.59;64.52;99390.31;4432085;32;34230;-77
2023/05/16 00:28:45;;;;;;;;;;;;;;;17.72;67.54;99386.13;4431399;32;33992;-77
2023/05/16 00:31:13;;;;;;;;;;;;;;;17.16;70.06;99399.53;4420579;32;32493;-77
2023/05/16 00:33:40;;;;;;;;;;;;;;;17.47;68.92;99406.84;4433187;32;32952;-77
2023/05/16 00:36:07;;;;;;;;;;;;;;;17.38;69.40;99404.13;4420932;32;33102;-77
2023/05/16 00:38:34;;;;;;;;;;;;;;;18.70;64.35;99403.47;4423232;32;33956;-77
2023/05/16 00:41:03;;;;;;;;;;;;;;;17.27;69.69;99408.38;4437063;32;34937;-76
2023/05/16 00:43:30;;;;;;;;;;;;;;;17.96;66.91;99408.22;4435105;32;34767;-77
2023/05/16 00:45:57;;;;;;;;;;;;;;;17.63;67.25;99405.25;4436946;32;34157;-77
2023/05/16 00:48:25;;;;;;;;;;;;;;;16.84;72.14;99415.69;4437773;32;34018;-76
2023/05/16 00:50:52;;;;;;;;;;;;;;;16.48;73.93;99411.69;4437218;32;34249;-76
2023/05/16 00:53:22;;;;;;;;;;;;;;;16.92;73.13;99419.31;4436879;32;33945;-76
2023/05/16 00:55:50;;;;;;;;;;;;;;;16.89;73.22;99421.87;4429670;32;34106;-77
2023/05/16 00:58:17;;;;;;;;;;;;;;;17.52;70.19;99419.09;4435348;32;34178;-76
2023/05/16 01:00:46;;;;;;;;;;;;;;;16.91;72.14;99425.38;4430973;32;34805;-77
2023/05/16 01:03:15;;;;;;;;;;;;;;;17.40;70.49;99426.00;4424199;32;34132;-77
2023/05/16 01:05:42;;;;;;;;;;;;;;;17.52;68.91;99416.47;4423460;32;33304;-76
2023/05/16 01:08:11;;;;;;;;;;;;;;;17.18;71.77;99437.06;4435052;32;33894;-77
2023/05/16 01:10:43;;;;;;;;;;;;;;;16.37;76.08;99439.38;4436955;32;33668;-77
2023/05/16 01:13:33;;;;;;;;;;;;;;;17.32;72.44;99443.31;4432484;32;34548;-76
2023/05/16 01:16:20;;;;;;;;;;;;;;;17.42;72.15;99447.81;4429731;32;34211;-77
2023/05/16 01:19:09;;;;;;;;;;;;;;;19.58;63.91;99429.22;4437379;32;33803;-76
2023/05/16 01:21:41;;;;;;;;;;;;;;;20.45;60.48;99406.50;4422011;32;34756;-77
2023/05/16 01:24:12;;;;;;;;;;;;;;;19.90;61.78;99409.19;4436668;32;33544;-77
2023/05/16 01:26:40;;;;;;;;;;;;;;;18.69;65.30;99414.84;4437145;32;33224;-77
2023/05/16 01:29:07;;;;;;;;;;;;;;;18.47;65.96;99419.97;4413285;32;34160;-77
2023/05/16 01:31:34;;;;;;;;;;;;;;;18.13;67.84;99422.34;4437215;32;34655;-77
2023/05/16 01:34:02;;;;;;;;;;;;;;;17.25;72.03;99438.91;4423806;32;33814;-77
2023/05/16 01:36:38;;;;;;;;;;;;;;;16.96;74.22;99431.56;4437537;32;33846;-76
2023/05/16 01:39:08;;;;;;;;;;;;;;;16.53;76.61;99420.44;4424438;32;35484;-77
2023/05/16 01:41:41;;;;;;;;;;;;;;;18.86;66.15;99400.13;4423546;32;33417;-76
2023/05/16 01:44:10;;;;;;;;;;;;;;;19.38;64.10;99397.69;4434453;32;34299;-77
2023/05/16 01:46:38;;;;;;;;;;;;;;;20.11;61.48;99388.16;4420268;32;33358;-77
2023/05/16 01:49:12;;;;;;;;;;;;;;;20.91;58.45;99397.66;4420450;32;35444;-77
2023/05/16 01:51:39;;;;;;;;;;;;;;;20.49;59.01;99389.84;4437850;32;33849;-76
2023/05/16 01:54:08;;;;;;;;;;;;;;;21.32;56.66;99378.16;4441303;32;33554;-77
2023/05/16 01:56:35;;;;;;;;;;;;;;;21.10;57.13;99380.03;4420407;32;33117;-77
2023/05/16 01:59:04;;;;;;;;;;;;;;;21.98;54.41;99375.97;4433241;32;33671;-77
2023/05/16 02:01:31;;;;;;;;;;;;;;;22.10;53.13;99375.00;4429937;32;33919;-76
2023/05/16 02:03:59;;;;;;;;;;;;;;;21.64;53.98;99363.94;4445815;32;34114;-76
2023/05/16 02:06:26;;;;;;;;;;;;;;;21.93;53.47;99363.72;4452428;32;33733;-76
2023/05/16 02:08:54;;;;;;;;;;;;;;;21.77;54.46;99355.94;4444091;32;34857;-77
2023/05/16 02:11:22;;;;;;;;;;;;;;;18.75;64.35;99370.28;4448948;32;34243;-77
2023/05/16 02:13:49;;;;;;;;;;;;;;;18.20;67.39;99379.59;4443394;32;34850;-77
2023/05/16 02:16:16;;;;;;;;;;;;;;;17.20;71.89;99394.31;4447904;32;32951;-77
2023/05/16 02:18:44;;;;;;;;;;;;;;;17.30;71.95;99387.47;4436884;32;33906;-77
2023/05/16 02:21:12;;;;;;;;;;;;;;;16.36;75.92;99386.25;4441195;32;33596;-77
2023/05/16 02:23:39;;;;;;;;;;;;;;;18.04;69.50;99364.59;4450937;32;34192;-77
2023/05/16 02:26:06;;;;;;;;;;;;;;;19.56;63.89;99351.31;4438708;32;33420;-77
2023/05/16 02:28:34;;;;;;;;;;;;;;;20.14;61.37;99351.31;4450907;32;34255;-77
2023/05/16 02:31:03;;;;;;;;;;;;;;;21.10;57.06;99341.41;4446792;32;34475;-77
2023/05/16 02:33:30;;;;;;;;;;;;;;;20.78;58.07;99344.19;4449544;32;34857;-77
2023/05/16 02:35:57;;;;;;;;;;;;;;;19.42;62.05;99344.28;4437747;32;33136;-77
2023/05/16 02:38:25;;;;;;;;;;;;;;;18.42;65.98;99343.00;4449549;32;33933;-77
2023/05/16 02:40:54;;;;;;;;;;;;;;;19.26;62.96;99332.00;4451516;32;33737;-77
2023/05/16 02:43:22;;;;;;;;;;;;;;;17.86;68.26;99347.00;4454032;32;33814;-77
2023/05/16 02:45:49;;;;;;;;;;;;;;;17.58;69.51;99357.22;4451811;32;33441;-77
2023/05/16 02:48:16;;;;;;;;;;;;;;;16.63;73.04;99369.16;4448288;32;34758;-77
2023/05/16 02:50:43;;;;;;;;;;;;;;;16.28;74.70;99373.06;4443900;32;34695;-77
2023/05/16 02:53:11;;;;;;;;;;;;;;;15.80;78.12;99378.34;4443717;32;32986;-77
2023/05/16 02:55:38;;;;;;;;;;;;;;;16.23;76.22;99379.94;4453642;32;32557;-76
2023/05/16 02:58:05;;;;;;;;;;;;;;;15.27;80.93;99381.75;4449791;32;33633;-77
2023/05/16 03:00:33;;;;;;;;;;;;;;;16.56;75.35;99357.75;4452855;32;34202;-77
2023/05/16 03:03:00;;;;;;;;;;;;;;;18.20;68.99;99345.50;4453533;32;34387;-77
2023/05/16 03:05:29;;;;;;;;;;;;;;;18.77;65.99;99343.16;4453782;32;33364;-76
2023/05/16 03:07:57;;;;;;;;;;;;;;;19.63;62.66;99332.06;4453412;32;34337;-76
2023/05/16 03:10:25;;;;;;;;;;;;;;;19.71;62.39;99329.44;4424651;32;32721;-77
2023/05/16 03:12:53;;;;;;;;;;;;;;;19.66;62.25;99326.78;4451375;32;34858;-77
2023/05/16 03:15:21;;;;;;;;;;;;;;;19.20;63.17;99337.22;4445133;32;33403;-76
2023/05/16 03:17:48;;;;;;;;;;;;;;;18.77;64.66;99352.78;4445922;32;34042;-77
2023/05/16 03:20:15;;;;;;;;;;;;;;;18.07;67.47;99360.25;4445518;32;33883;-76
2023/05/16 03:22:44;;;;;;;;;;;;;;;17.65;69.61;99360.75;4440343;32;34294;-77
2023/05/16 03:25:11;;;;;;;;;;;;;;;17.27;71.11;99371.75;4446301;32;33222;-76
2023/05/16 03:27:40;;;;;;;;;;;;;;;17.48;70.61;99371.97;4448043;32;32943;-77
2023/05/16 03:30:08;;;;;;;;;;;;;;;19.05;64.85;99365.19;4451015;32;32848;-77
2023/05/16 03:32:36;;;;;;;;;;;;;;;18.07;68.00;99369.88;4443477;32;33578;-77
2023/05/16 03:35:04;;;;;;;;;;;;;;;19.23;64.26;99363.50;4431803;32;33414;-77
2023/05/16 03:37:31;;;;;;;;;;;;;;;18.09;68.00;99368.13;4439173;32;33710;-78
2023/05/16 03:39:58;;;;;;;;;;;;;;;19.52;62.28;99352.19;4433958;32;33844;-78
2023/05/16 03:42:26;;;;;;;;;;;;;;;20.00;61.06;99353.09;4428260;32;34084;-77
2023/05/16 03:44:53;;;;;;;;;;;;;;;20.45;58.39;99348.62;4446618;32;33506;-77
2023/05/16 03:47:21;;;;;;;;;;;;;;;20.19;58.81;99333.81;4446911;32;33952;-77
2023/05/16 03:49:48;;;;;;;;;;;;;;;20.51;58.02;99330.19;4442981;32;32664;-77
2023/05/16 03:52:16;;;;;;;;;;;;;;;19.11;62.66;99331.97;4441458;32;33977;-77
2023/05/16 03:54:43;;;;;;;;;;;;;;;19.54;61.57;99334.66;4448666;32;33464;-77
2023/05/16 03:57:10;;;;;;;;;;;;;;;19.64;61.02;99333.78;4448335;32;34867;-77
2023/05/16 03:59:38;;;;;;;;;;;;;;;18.01;67.75;99343.63;4452238;32;34144;-77
2023/05/16 04:02:05;;;;;;;;;;;;;;;17.85;68.32;99343.50;4446875;32;34023;-77
2023/05/16 04:04:32;;;;;;;;;;;;;;;18.27;66.44;99342.06;4441903;32;32924;-78
2023/05/16 04:07:00;;;;;;;;;;;;;;;17.57;69.75;99338.84;4445922;32;34885;-77
2023/05/16 04:09:27;;;;;;;;;;;;;;;19.42;63.17;99328.53;4442661;32;34476;-77
2023/05/16 04:11:55;;;;;;;;;;;;;;;19.24;63.74;99339.00;4441453;32;35046;-77
2023/05/16 04:14:23;;;;;;;;;;;;;;;18.87;64.60;99333.62;4447306;32;32964;-78
2023/05/16 04:16:50;;;;;;;;;;;;;;;16.95;72.11;99351.31;4442224;32;33668;-77
2023/05/16 04:19:18;;;;;;;;;;;;;;;16.15;76.82;99358.06;4452714;32;34372;-77
2023/05/16 04:21:45;;;;;;;;;;;;;;;15.76;79.62;99355.66;4444179;32;33471;-77
2023/05/16 04:24:12;;;;;;;;;;;;;;;16.34;77.61;99350.47;4442823;32;33460;-76
2023/05/16 04:26:40;;;;;;;;;;;;;;;16.02;78.50;99350.88;4445746;32;34244;-77
2023/05/16 04:29:07;;;;;;;;;;;;;;;15.52;80.79;99370.91;4453024;32;34255;-77
2023/05/16 04:31:35;;;;;;;;;;;;;;;15.58;81.72;99382.31;4449857;32;34954;-76
2023/05/16 04:34:03;;;;;;;;;;;;;;;15.84;80.54;99391.53;4447849;32;33089;-77
2023/05/16 04:36:31;;;;;;;;;;;;;;;17.66;73.40;99383.47;4444469;32;34185;-78
2023/05/16 04:38:58;;;;;;;;;;;;;;;17.97;70.64;99382.03;4451197;32;34964;-77
2023/05/16 04:41:26;;;;;;;;;;;;;;;16.57;75.46;99388.25;4444317;32;34644;-77
2023/05/16 04:43:53;;;;;;;;;;;;;;;17.87;71.02;99375.84;4443614;32;33237;-77
2023/05/16 04:46:20;;;;;;;;;;;;;;;19.61;64.40;99365.34;4431509;32;32440;-77
2023/05/16 04:48:48;;;;;;;;;;;;;;;18.80;66.32;99373.84;4421216;32;32420;-78
2023/05/16 04:51:15;;;;;;;;;;;;;;;18.07;68.68;99372.50;4441284;32;34723;-77
2023/05/16 04:53:42;;;;;;;;;;;;;;;17.71;70.03;99366.03;4442360;32;31541;-76
2023/05/16 04:56:10;;;;;;;;;;;;;;;17.45;70.66;99374.53;4423320;32;34921;-77
2023/05/16 04:58:37;;;;;;;;;;;;;;;16.25;76.22;99393.91;4435775;32;34230;-76
2023/05/16 05:01:06;;;;;;;;;;;;;;;16.61;75.47;99395.31;4436875;32;33979;-76
2023/05/16 05:03:34;;;;;;;;;;;;;;;17.26;72.94;99388.28;4437581;32;32897;-76
2023/05/16 05:06:02;;;;;;;;;;;;;;;17.35;72.31;99388.41;4434810;32;33636;-77
2023/05/16 05:08:29;;;;;;;;;;;;;;;17.28;72.75;99382.19;4437827;32;34131;-78
2023/05/16 05:10:57;;;;;;;;;;;;;;;16.66;75.61;99388.38;4423972;32;34228;-77
2023/05/16 05:13:24;;;;;;;;;;;;;;;16.63;75.62;99396.22;4437388;32;33229;-76
2023/05/16 05:15:51;;;;;;;;;;;;;;;16.24;78.05;99399.97;4432110;32;34256;-77
2023/05/16 05:18:19;;;;;;;;;;;;;;;16.17;78.78;99400.75;4432626;32;35017;-77
2023/05/16 05:20:46;;;;;;;;;;;;;;;16.30;79.40;99405.31;4434567;32;33693;-76
2023/05/16 05:23:13;;;;;;;;;;;;;;;17.14;75.62;99409.09;4437019;32;33131;-77
2023/05/16 05:25:41;;;;;;;;;;;;;;;18.66;69.57;99400.84;4424417;32;34090;-76
2023/05/16 05:28:08;;;;;;;;;;;;;;;18.95;67.99;99392.28;4436902;32;34189;-78
2023/05/16 05:30:35;;;;;;;;;;;;;;;19.63;65.43;99385.47;4436848;32;33853;-78
2023/05/16 05:33:03;;;;;;;;;;;;;;;20.19;63.12;99391.66;4437016;32;33225;-78
2023/05/16 05:35:30;;;;;;;;;;;;;;;20.19;62.19;99383.75;4430291;32;34254;-78
2023/05/16 05:37:58;;;;;;;;;;;;;;;20.74;60.35;99382.78;4435288;32;34448;-78
2023/05/16 05:40:25;;;;;;;;;;;;;;;21.37;57.83;99386.91;4428279;32;34813;-79
2023/05/16 05:42:52;;;;;;;;;;;;;;;21.05;58.39;99394.97;4436071;32;33359;-78
2023/05/16 05:45:19;;;;;;;;;;;;;;;22.05;55.39;99389.09;4436907;32;34066;-78
2023/05/16 05:47:47;;;;;;;;;;;;;;;23.27;51.09;99368.44;4422982;32;33256;-78
2023/05/16 05:50:15;;;;;;;;;;;;;;;22.99;51.96;99381.13;4434776;32;34215;-78
2023/05/16 05:52:42;;;;;;;;;;;;;;;23.12;51.62;99381.84;4423305;32;33240;-77
2023/05/16 05:55:09;;;;;;;;;;;;;;;22.31;53.94;99373.06;4438918;32;34965;-78
2023/05/16 05:57:37;;;;;;;;;;;;;;;22.08;54.76;99382.06;4449829;32;34845;-79
2023/05/16 06:00:04;;;;;;;;;;;;;;;21.86;55.24;99380.47;4441545;32;34921;-78
2023/05/16 06:02:33;;;;;;;;;;;;;;;22.35;54.31;99370.41;4449266;32;33869;-78
2023/05/16 06:05:01;;;;;;;;;;;;;;;22.82;52.44;99365.47;4427199;32;33936;-78
2023/05/16 06:07:29;;;;;;;;;;;;;;;22.43;53.60;99372.09;4448114;32;33919;-78
2023/05/16 06:09:57;;;;;;;;;;;;;;;20.07;60.78;99367.09;4434671;32;34153;-78
2023/05/16 06:12:24;;;;;;;;;;;;;;;18.96;66.66;99375.66;4441712;32;34326;-77
2023/05/16 06:14:52;;;;;;;;;;;;;;;18.57;69.05;99365.84;4451916;32;33949;-78
2023/05/16 06:17:19;;;;;;;;;;;;;;;18.83;67.58;99373.84;4453217;32;34190;-78
2023/05/16 06:19:46;;;;;;;;;;;;;;;19.42;65.39;99354.78;4454405;32;33896;-78
2023/05/16 06:22:13;;;;;;;;;;;;;;;20.03;63.11;99358.38;4427671;32;33107;-78
2023/05/16 06:24:41;;;;;;;;;;;;;;;20.09;62.93;99353.09;4437193;32;34348;-77
2023/05/16 06:27:08;;;;;;;;;;;;;;;20.95;60.00;99342.34;4448770;32;34038;-77
2023/05/16 06:29:35;;;;;;;;;;;;;;;19.81;63.41;99352.22;4438803;32;33353;-78
2023/05/16 06:32:03;;;;;;;;;;;;;;;20.13;62.72;99354.84;4452623;32;32493;-77
2023/05/16 06:34:31;;;;;;;;;;;;;;;19.12;66.60;99354.72;4450900;32;34435;-78
2023/05/16 06:36:58;;;;;;;;;;;;;;;19.86;64.17;99344.34;4444603;32;34836;-78
2023/05/16 06:39:26;;;;;;;;;;;;;;;21.04;60.05;99345.84;4441500;32;34531;-77
2023/05/16 06:41:54;;;;;;;;;;;;;;;21.43;58.88;99341.22;4427971;32;33361;-78
2023/05/16 06:44:22;;;;;;;;;;;;;;;20.78;60.31;99336.28;4450895;32;34349;-78
2023/05/16 06:46:50;;;;;;;;;;;;;;;20.14;62.05;99338.19;4412667;32;34257;-78
2023/05/16 06:49:17;;;;;;;;;;;;;;;18.72;68.96;99350.16;4449920;32;33783;-78
2023/05/16 06:51:45;;;;;;;;;;;;;;;20.41;62.58;99339.00;4429155;32;786424;-78
2023/05/16 06:54:12;;;;;;;;;;;;;;;20.61;61.03;99347.75;4437363;32;34695;-78
2023/05/16 06:56:39;;;;;;;;;;;;;;;19.94;62.98;99342.59;4438955;32;34205;-78
2023/05/16 06:59:07;;;;;;;;;;;;;;;19.56;63.90;99341.66;4439006;32;33940;-78
2023/05/16 07:01:34;;;;;;;;;;;;;;;20.12;62.10;99341.69;4450357;32;34272;-78
2023/05/16 07:04:01;;;;;;;;;;;;;;;19.65;63.34;99335.56;4446113;32;34303;-78
2023/05/16 07:06:29;;;;;;;;;;;;;;;19.57;63.76;99342.56;4435897;32;33965;-78
2023/05/16 07:08:57;;;;;;;;;;;;;;;19.85;62.78;99346.09;4436357;32;34933;-78
2023/05/16 07:11:24;;;;;;;;;;;;;;;18.97;64.97;99345.94;4442309;32;33832;-78
2023/05/16 07:13:52;;;;;;;;;;;;;;;19.23;65.14;99356.50;4445140;32;34247;-80
2023/05/16 07:16:19;;;;;;;;;;;;;;;19.83;63.35;99356.59;4433898;32;34984;-78
2023/05/16 07:18:47;;;;;;;;;;;;;;;19.87;63.25;99353.97;4439306;32;33842;-78
2023/05/16 07:21:14;;;;;;;;;;;;;;;19.98;62.45;99349.59;4426384;32;33918;-77
2023/05/16 07:23:41;;;;;;;;;;;;;;;19.39;65.00;99332.88;4442092;32;35037;-77
2023/05/16 07:26:09;;;;;;;;;;;;;;;18.86;66.53;99326.62;4450027;32;32814;-78
2023/05/16 07:28:38;;;;;;;;;;;;;;;18.89;67.39;99325.75;4429771;32;34934;-78
2023/05/16 07:31:07;;;;;;;;;;;;;;;19.58;65.27;99339.03;4429019;32;31477;-78
2023/05/16 07:33:34;;;;;;;;;;;;;;;20.09;63.25;99332.06;4451055;32;34254;-78
2023/05/16 07:36:01;;;;;;;;;;;;;;;19.13;66.80;99330.22;4453924;32;34438;-77
2023/05/16 07:38:43;;;;;;;;;;;;;;;19.30;65.91;99325.88;4453931;32;34527;-77
2023/05/16 07:41:11;;;;;;;;;;;;;;;18.76;68.61;99330.06;4453300;32;32963;-77
2023/05/16 07:43:38;;;;;;;;;;;;;;;19.29;67.04;99337.25;4453478;32;34271;-78
2023/05/16 07:46:06;;;;;;;;;;;;;;;19.31;66.95;99321.50;4459372;32;33878;-79
2023/05/16 07:48:33;;;;;;;;;;;;;;;19.67;66.08;99328.53;4444773;32;34234;-78
2023/05/16 07:51:00;;;;;;;;;;;;;;;18.87;68.87;99328.38;4435172;32;34316;-79
2023/05/16 07:53:28;;;;;;;;;;;;;;;19.60;66.58;99321.53;4449141;32;33672;-78
2023/05/16 07:55:55;;;;;;;;;;;;;;;18.46;70.98;99326.41;4440310;32;34071;-78
2023/05/16 07:58:24;;;;;;;;;;;;;;;19.46;67.92;99318.91;4440444;32;33951;-78
2023/05/16 08:00:51;;;;;;;;;;;;;;;19.10;69.23;99330.19;4440894;32;34014;-77
2023/05/16 08:03:19;;;;;;;;;;;;;;;18.82;70.48;99332.75;4434756;32;32401;-78
2023/05/16 08:05:47;;;;;;;;;;;;;;;18.63;71.12;99324.75;4440471;32;34752;-78
2023/05/16 08:08:15;;;;;;;;;;;;;;;18.91;70.95;99327.53;4433657;32;34297;-78
2023/05/16 08:10:42;;;;;;;;;;;;;;;18.27;73.13;99334.19;4443202;32;32956;-78
2023/05/16 08:13:09;;;;;;;;;;;;;;;18.16;74.47;99333.25;4453441;32;34929;-78
2023/05/16 08:15:37;;;;;;;;;;;;;;;18.38;74.27;99336.00;4444929;32;33972;-77
2023/05/16 08:18:06;;;;;;;;;;;;;;;20.07;67.49;99344.34;4438492;32;33776;-78
2023/05/16 08:20:33;;;;;;;;;;;;;;;19.88;67.49;99338.22;4429215;32;33256;-77
2023/05/16 08:23:00;;;;;;;;;;;;;;;19.25;70.26;99335.50;4443065;32;34096;-78
2023/05/16 08:25:28;;;;;;;;;;;;;;;19.07;71.35;99324.97;4436701;32;34033;-77
2023/05/16 08:27:56;;;;;;;;;;;;;;;19.18;71.91;99317.97;4448962;32;34181;-77
2023/05/16 08:30:24;;;;;;;;;;;;;;;18.37;74.19;99313.25;4447443;32;34128;-77
2023/05/16 08:32:52;;;;;;;;;;;;;;;19.16;71.41;99310.09;4450656;32;34702;-78
2023/05/16 08:35:19;;;;;;;;;;;;;;;19.38;70.47;99310.13;4427175;32;33799;-77
2023/05/16 08:37:46;;;;;;;;;;;;;;;19.79;69.90;99307.53;4440106;32;34117;-77
2023/05/16 08:40:14;;;;;;;;;;;;;;;18.77;73.85;99305.56;4434394;32;34037;-78
2023/05/16 08:42:41;;;;;;;;;;;;;;;18.21;75.58;99310.53;4427543;32;33960;-79
2023/05/16 08:45:11;;;;;;;;;;;;;;;18.33;75.37;99303.62;4438571;32;34342;-78
2023/05/16 08:47:40;;;;;;;;;;;;;;;18.57;75.28;99303.75;4452971;32;34402;-77
2023/05/16 08:50:08;;;;;;;;;;;;;;;18.91;74.36;99301.28;4443508;32;34130;-78
2023/05/16 08:52:37;;;;;;;;;;;;;;;18.25;76.86;99306.19;4443981;32;33323;-78
2023/05/16 08:55:06;;;;;;;;;;;;;;;19.04;74.43;99303.09;4437062;32;35355;-78
2023/05/16 08:57:37;;;;;;;;;;;;;;;18.43;77.70;99305.44;4446837;32;33988;-78
2023/05/16 09:00:10;;;;;;;;;;;;;;;17.89;79.61;99305.09;4442662;32;32929;-77
2023/05/16 09:02:38;;;;;;;;;;;;;;;18.51;76.71;99308.09;4429556;32;34129;-79
2023/05/16 09:05:07;;;;;;;;;;;;;;;19.38;73.37;99308.37;4435691;32;34975;-78
2023/05/16 09:07:35;;;;;;;;;;;;;;;18.81;75.36;99307.37;4438782;32;34872;-79
2023/05/16 09:10:02;;;;;;;;;;;;;;;17.75;79.58;99294.50;4446059;32;33212;-78
2023/05/16 09:12:30;;;;;;;;;;;;;;;17.91;79.71;99302.50;4436281;32;34738;-78
2023/05/16 09:14:57;;;;;;;;;;;;;;;18.18;78.93;99300.06;4452433;32;34225;-78
2023/05/16 09:17:25;;;;;;;;;;;;;;;18.24;78.23;99299.22;4452745;32;34181;-78
2023/05/16 09:20:09;;;;;;;;;;;;;;;18.48;77.22;99298.44;4452129;32;33005;-78
2023/05/16 09:22:36;;;;;;;;;;;;;;;19.13;75.11;99298.72;4452764;32;33732;-79
2023/05/16 09:25:04;;;;;;;;;;;;;;;18.20;77.68;99303.56;4428480;32;34854;-78
2023/05/16 09:27:35;;;;;;;;;;;;;;;18.34;77.02;99301.00;4435560;32;34172;-78
2023/05/16 09:30:02;;;;;;;;;;;;;;;18.50;76.68;99299.34;4426266;32;33479;-78
2023/05/16 09:32:30;;;;;;;;;;;;;;;18.76;75.60;99282.84;4436020;32;34260;-78
2023/05/16 09:34:57;;;;;;;;;;;;;;;18.53;76.86;99281.00;4442654;32;34020;-78
2023/05/16 09:37:25;;;;;;;;;;;;;;;18.33;77.85;99285.25;4449812;32;33869;-79
2023/05/16 09:39:53;;;;;;;;;;;;;;;18.82;76.43;99293.38;4449307;32;33882;-77
2023/05/16 09:42:22;;;;;;;;;;;;;;;18.79;76.17;99288.94;4445711;32;34381;-77
2023/05/16 09:44:50;;;;;;;;;;;;;;;18.49;77.16;99294.97;4431359;32;34879;-77
2023/05/16 09:47:18;;;;;;;;;;;;;;;19.23;74.38;99289.97;4439939;32;34322;-78
2023/05/16 09:49:46;;;;;;;;;;;;;;;19.10;73.65;99303.94;4450543;32;33983;-78
2023/05/16 09:52:14;;;;;;;;;;;;;;;18.82;75.06;99307.37;4427150;32;34064;-77
2023/05/16 09:54:41;;;;;;;;;;;;;;;18.98;75.02;99300.41;4428601;32;34870;-78
2023/05/16 09:57:09;;;;;;;;;;;;;;;19.43;71.97;99288.25;4449932;32;32345;-78
2023/05/16 09:59:37;;;;;;;;;;;;;;;18.75;75.24;99296.81;4448550;32;33458;-78
2023/05/16 10:02:05;;;;;;;;;;;;;;;18.66;75.56;99293.28;4448412;32;34870;-78
2023/05/16 10:04:35;;;;;;;;;;;;;;;19.17;73.92;99285.59;4421225;32;35414;-77
2023/05/16 10:07:03;;;;;;;;;;;;;;;18.72;75.64;99292.44;4446801;32;32743;-78
2023/05/16 10:09:33;;;;;;;;;;;;;;;18.20;77.96;99286.97;4439675;32;32832;-78
2023/05/16 10:12:03;;;;;;;;;;;;;;;18.87;75.81;99281.12;4428971;32;33820;-78
2023/05/16 10:14:33;;;;;;;;;;;;;;;18.93;75.41;99296.03;4454761;32;34289;-78
2023/05/16 10:17:00;;;;;;;;;;;;;;;18.22;78.28;99296.59;4453856;32;34912;-78
2023/05/16 10:19:29;;;;;;;;;;;;;;;17.92;80.92;99280.66;4435648;32;33267;-77
2023/05/16 10:21:59;;;;;;;;;;;;;;;18.61;77.26;99275.78;4453723;32;34252;-78
2023/05/16 10:24:28;;;;;;;;;;;;;;;18.42;77.88;99270.44;4447107;32;33723;-78
2023/05/16 10:26:55;;;;;;;;;;;;;;;18.82;76.01;99267.16;4433180;32;34528;-78
2023/05/16 10:29:23;;;;;;;;;;;;;;;18.35;77.85;99265.16;4441281;32;33614;-78
2023/05/16 10:31:51;;;;;;;;;;;;;;;18.78;76.80;99254.87;4432493;32;34226;-78
2023/05/16 10:34:18;;;;;;;;;;;;;;;18.72;76.88;99260.97;4433518;32;34593;-77
2023/05/16 10:36:45;;;;;;;;;;;;;;;18.33;78.70;99261.66;4431927;32;34159;-77
2023/05/16 10:39:14;;;;;;;;;;;;;;;18.55;76.89;99268.75;4429852;32;33309;-78
2023/05/16 10:41:41;;;;;;;;;;;;;;;18.26;78.04;99261.66;4428797;32;34175;-76
2023/05/16 10:44:12;;;;;;;;;;;;;;;18.76;77.10;99264.47;4420161;32;32727;-79
2023/05/16 10:46:39;;;;;;;;;;;;;;;18.63;76.67;99259.16;4443824;32;34875;-79
2023/05/16 10:49:20;;;;;;;;;;;;;;;18.67;77.79;99247.81;4446483;32;33473;-79
2023/05/16 10:52:01;;;;;;;;;;;;;;;18.05;80.59;99225.72;4436441;32;32850;-77
2023/05/16 10:54:35;;;;;;;;;;;;;;;18.37;80.21;99217.13;4446182;32;34008;-77
2023/05/16 10:57:03;;;;;;;;;;;;;;;18.54;79.72;99213.69;4449049;32;34815;-77
2023/05/16 10:59:31;;;;;;;;;;;;;;;18.49;80.01;99218.91;4439618;32;34016;-80
2023/05/16 11:01:58;;;;;;;;;;;;;;;18.33;80.22;99219.72;4423097;32;34853;-77
2023/05/16 11:04:44;;;;;;;;;;;;;;;18.61;80.72;99212.84;4433328;32;32719;-76
2023/05/16 11:07:11;;;;;;;;;;;;;;;17.56;84.69;99208.78;4445192;32;34913;-80
2023/05/16 11:09:40;;;;;;;;;;;;;;;18.10;82.44;99207.41;4437450;32;33705;-78
2023/05/16 11:12:08;;;;;;;;;;;;;;;18.35;82.52;99208.37;4431279;32;34148;-77
2023/05/16 11:14:42;;;;;;;;;;;;;;;18.81;79.79;99197.16;4448508;32;34130;-77
2023/05/16 11:17:10;;;;;;;;;;;;;;;18.22;81.95;99186.47;4447396;32;34691;-78
2023/05/16 11:19:40;;;;;;;;;;;;;;;18.42;81.03;99172.56;4447996;32;32982;-78
2023/05/16 11:22:08;;;;;;;;;;;;;;;18.63;81.40;99169.97;4437428;32;33257;-79
2023/05/16 11:24:36;;;;;;;;;;;;;;;18.51;80.46;99183.09;4448187;32;34311;-77
2023/05/16 11:27:04;;;;;;;;;;;;;;;18.53;81.48;99180.47;4419921;32;34534;-77
2023/05/16 11:29:32;;;;;;;;;;;;;;;19.09;79.01;99178.84;4441787;32;33195;-77
2023/05/16 11:32:01;;;;;;;;;;;;;;;18.65;81.49;99181.34;4448158;32;34038;-77
2023/05/16 11:34:29;;;;;;;;;;;;;;;18.77;80.90;99184.87;4418935;32;34182;-82
2023/05/16 11:36:57;;;;;;;;;;;;;;;18.26;83.11;99187.38;4434993;32;33697;-79
2023/05/16 11:39:24;;;;;;;;;;;;;;;18.62;81.46;99191.84;4439551;32;33528;-77
2023/05/16 11:41:54;;;;;;;;;;;;;;;19.18;78.49;99191.94;4438955;32;34448;-78
2023/05/16 11:44:22;;;;;;;;;;;;;;;18.39;81.97;99183.06;4450366;32;32775;-79
2023/05/16 11:46:49;;;;;;;;;;;;;;;18.82;80.67;99172.69;4450288;32;34035;-78
2023/05/16 11:49:17;;;;;;;;;;;;;;;19.11;78.15;99175.34;4432555;32;33352;-77
2023/05/16 11:51:44;;;;;;;;;;;;;;;18.61;80.60;99179.59;4431950;32;33505;-77
2023/05/16 11:54:12;;;;;;;;;;;;;;;18.69;81.20;99173.50;4450832;32;33630;-78
2023/05/16 11:56:40;;;;;;;;;;;;;;;19.16;79.43;99176.22;4445754;32;34971;-78
2023/05/16 11:59:09;;;;;;;;;;;;;;;18.70;81.01;99163.03;4447170;32;33484;-77
2023/05/16 12:01:37;;;;;;;;;;;;;;;19.21;79.26;99170.94;4435204;32;33935;-77
2023/05/16 12:04:09;;;;;;;;;;;;;;;18.99;79.43;99170.94;4448552;32;34171;-77
2023/05/16 12:06:37;;;;;;;;;;;;;;;19.49;77.11;99173.53;4432728;32;33403;-77
2023/05/16 12:09:11;;;;;;;;;;;;;;;19.59;76.51;99172.66;4445950;32;33453;-78
2023/05/16 12:11:39;;;;;;;;;;;;;;;19.09;78.05;99163.09;4429398;32;33954;-77
2023/05/16 12:14:07;;;;;;;;;;;;;;;19.16;78.14;99167.44;4452211;32;35057;-77
2023/05/16 12:16:35;;;;;;;;;;;;;;;19.30;77.71;99160.44;4433233;32;34232;-77
2023/05/16 12:19:04;;;;;;;;;;;;;;;19.48;77.38;99171.81;4450670;32;33512;-77
2023/05/16 12:21:31;;;;;;;;;;;;;;;19.53;76.76;99176.19;4436710;32;34821;-78
2023/05/16 12:23:58;;;;;;;;;;;;;;;19.40;77.42;99172.69;4449328;32;35064;-79
2023/05/16 12:26:27;;;;;;;;;;;;;;;19.00;79.38;99170.06;4432231;32;33380;-77
2023/05/16 12:28:56;;;;;;;;;;;;;;;20.01;75.53;99162.94;4443977;32;33215;-77
2023/05/16 12:31:24;;;;;;;;;;;;;;;19.65;76.13;99177.91;4446423;32;34750;-77
2023/05/16 12:33:58;;;;;;;;;;;;;;;19.43;77.04;99172.69;4444342;32;34093;-78
2023/05/16 12:36:30;;;;;;;;;;;;;;;20.08;74.38;99156.78;4437633;32;33552;-80
2023/05/16 12:39:04;;;;;;;;;;;;;;;19.85;75.87;99156.84;4440324;32;34806;-79
2023/05/16 12:41:31;;;;;;;;;;;;;;;19.37;77.73;99162.19;4432101;32;33732;-79
2023/05/16 12:44:19;;;;;;;;;;;;;;;20.07;75.18;99162.94;4445096;32;33991;-78
2023/05/16 12:46:50;;;;;;;;;;;;;;;20.70;72.44;99161.75;4436289;32;34141;-77
2023/05/16 12:49:24;;;;;;;;;;;;;;;20.61;73.46;99157.44;4429153;32;32970;-79
2023/05/16 12:51:52;;;;;;;;;;;;;;;19.68;76.13;99177.03;4436231;32;32432;-79
2023/05/16 12:54:21;;;;;;;;;;;;;;;19.58;76.97;99171.78;4441634;32;34860;-78